Time;durP1;ratioP1;P1;durP2;ratioP2;P2;SDS_P1;SDS_P2;PMS_P1;PMS_P2;Temp;Humidity;BMP_temperature;BMP_pressure;BME280_temperature;BME280_humidity;BME280_pressure;Samples;Min_cycle;Max_cycle;Signal;HPM_P1;HPM_P2
2023/09/09 00:00:46;;;;;;;49.47;46.97;;;;;;;11.17;100.00;101504.81;5008481;28;20056;-76
2023/09/09 00:03:13;;;;;;;48.60;46.25;;;;;;;11.22;100.00;101510.34;5004979;28;20053;-77
2023/09/09 00:05:40;;;;;;;54.47;51.88;;;;;;;11.09;100.00;101504.94;5000539;28;20116;-77
2023/09/09 00:08:07;;;;;;;56.20;53.30;;;;;;;11.29;100.00;101510.44;5002506;28;20054;-76
2023/09/09 00:10:37;;;;;;;49.63;47.20;;;;;;;11.06;100.00;101511.44;5005218;28;20046;-76
2023/09/09 00:13:04;;;;;;;63.85;60.75;;;;;;;10.54;100.00;101516.00;4998572;28;20057;-76
2023/09/09 00:15:31;;;;;;;42.72;40.33;;;;;;;10.62;100.00;101517.75;5009796;28;20046;-77
2023/09/09 00:17:58;;;;;;;51.13;48.15;;;;;;;10.60;100.00;101508.31;5005395;28;20049;-77
2023/09/09 00:20:30;;;;;;;48.03;45.42;;;;;;;10.82;100.00;101509.16;5004188;28;20049;-76
2023/09/09 00:22:57;;;;;;;61.97;58.97;;;;;;;10.92;100.00;101507.84;5011448;28;20050;-76
2023/09/09 00:25:24;;;;;;;61.05;58.03;;;;;;;10.93;100.00;101512.13;5008018;28;20058;-77
2023/09/09 00:27:52;;;;;;;65.50;61.78;;;;;;;10.25;100.00;101516.81;5001370;28;20075;-77
2023/09/09 00:30:19;;;;;;;48.70;46.22;;;;;;;10.69;100.00;101507.19;5010241;28;20088;-76
2023/09/09 00:32:46;;;;;;;68.55;65.35;;;;;;;10.76;100.00;101508.06;5006221;28;20057;-76
2023/09/09 00:35:15;;;;;;;76.82;73.30;;;;;;;10.61;100.00;101507.28;5004193;28;20042;-76
2023/09/09 00:37:42;;;;;;;59.45;56.55;;;;;;;10.73;100.00;101503.13;5008735;28;20124;-77
2023/09/09 00:40:10;;;;;;;62.88;58.03;;;;;;;10.73;100.00;101511.09;5005012;28;20060;-77
2023/09/09 00:42:49;;;;;;;56.50;53.70;;;;;;;10.63;100.00;101515.91;5000218;28;20054;-76
2023/09/09 00:45:40;;;;;;;59.22;56.33;;;;;;;10.59;100.00;101514.59;5007365;28;20552;-77
2023/09/09 00:48:14;;;;;;;51.38;48.67;;;;;;;10.47;100.00;101514.28;5000523;28;20523;-76
2023/09/09 00:50:56;;;;;;;58.03;55.22;;;;;;;10.34;100.00;101509.59;5007373;28;20042;-77
2023/09/09 00:53:32;;;;;;;64.13;61.03;;;;;;;10.29;100.00;101514.66;5005106;28;20049;-77
2023/09/09 00:56:01;;;;;;;56.08;53.35;;;;;;;10.52;100.00;101510.03;5001475;28;20050;-76
2023/09/09 00:58:30;;;;;;;59.40;56.70;;;;;;;10.50;100.00;101505.94;5004213;28;20405;-76
2023/09/09 01:01:04;;;;;;;64.10;61.10;;;;;;;10.05;100.00;101513.91;4996638;28;20054;-76
2023/09/09 01:03:39;;;;;;;76.05;72.75;;;;;;;9.60;100.00;101517.53;4996586;28;20105;-76
2023/09/09 01:06:06;;;;;;;53.72;51.33;;;;;;;10.08;100.00;101505.56;5002422;28;20042;-76
2023/09/09 01:08:33;;;;;;;55.88;53.20;;;;;;;10.25;100.00;101516.00;5008036;28;20061;-76
2023/09/09 01:11:00;;;;;;;58.15;55.58;;;;;;;9.92;100.00;101516.34;5009621;28;20068;-76
2023/09/09 01:13:28;;;;;;;65.72;62.72;;;;;;;9.82;100.00;101508.66;5005127;28;20053;-76
2023/09/09 01:16:01;;;;;;;57.22;54.35;;;;;;;9.66;100.00;101506.19;5005568;28;20053;-76
2023/09/09 01:18:31;;;;;;;57.80;55.20;;;;;;;10.06;100.00;101502.28;4998498;28;20431;-76
2023/09/09 01:21:04;;;;;;;54.65;52.25;;;;;;;10.08;100.00;101502.94;4999754;28;20426;-76
2023/09/09 01:23:32;;;;;;;51.78;49.28;;;;;;;9.75;100.00;101496.31;5003397;28;20050;-76
2023/09/09 01:25:59;;;;;;;47.67;45.28;;;;;;;9.94;100.00;101506.38;5004725;28;20090;-76
2023/09/09 01:28:26;;;;;;;50.85;48.45;;;;;;;10.06;100.00;101501.44;5001349;28;20050;-76
2023/09/09 01:30:53;;;;;;;51.55;49.20;;;;;;;10.06;100.00;101501.44;5007893;28;20522;-76
2023/09/09 01:33:40;;;;;;;47.50;45.20;;;;;;;9.65;100.00;101509.81;5005000;28;20432;-76
2023/09/09 01:36:09;;;;;;;52.38;49.88;;;;;;;9.81;100.00;101515.00;5004149;28;20057;-76
2023/09/09 01:38:37;;;;;;;46.60;44.10;;;;;;;9.94;100.00;101508.22;5005221;28;20053;-76
2023/09/09 01:41:04;;;;;;;41.92;39.72;;;;;;;10.02;100.00;101514.28;4993259;28;20508;-76
2023/09/09 01:43:30;;;;;;;52.13;49.42;;;;;;;9.79;100.00;101509.03;5004275;28;20057;-76
2023/09/09 01:45:57;;;;;;;48.00;45.70;;;;;;;9.66;100.00;101508.03;5009599;28;20042;-77
2023/09/09 01:48:26;;;;;;;53.33;50.83;;;;;;;9.74;100.00;101527.34;5007485;28;20054;-77
2023/09/09 01:50:53;;;;;;;47.40;45.10;;;;;;;9.76;100.00;101520.00;4999168;28;20042;-76
2023/09/09 01:53:20;;;;;;;53.55;51.05;;;;;;;9.83;100.00;101514.78;4998937;28;20053;-76
2023/09/09 01:55:49;;;;;;;44.70;42.50;;;;;;;9.63;100.00;101519.81;5006263;28;20053;-76
2023/09/09 01:58:22;;;;;;;56.67;53.97;;;;;;;9.85;100.00;101529.53;5003274;28;20050;-76
2023/09/09 02:00:48;;;;;;;;;;;;;;;9.83;100.00;101525.41;4995748;28;20053;-76
2023/09/09 02:03:15;;;;;;;49.38;46.97;;;;;;;9.73;100.00;101520.38;5003883;28;19934;-76
2023/09/09 02:05:42;;;;;;;48.42;46.08;;;;;;;9.12;100.00;101525.69;5002880;28;20050;-76
2023/09/09 02:08:09;;;;;;;50.95;48.65;;;;;;;9.33;100.00;101524.22;5008390;28;20057;-77
2023/09/09 02:10:36;;;;;;;56.85;54.25;;;;;;;9.31;100.00;101518.25;5000296;28;20054;-76
2023/09/09 02:13:05;;;;;;;55.38;52.67;;;;;;;9.29;100.00;101522.91;5002770;28;20056;-76
2023/09/09 02:15:31;;;;;;;61.55;58.55;;;;;;;9.33;100.00;101521.56;5008183;28;20647;-76
2023/09/09 02:17:58;;;;;;;53.58;50.97;;;;;;;9.17;100.00;101519.88;5000707;28;20053;-76
2023/09/09 02:20:25;;;;;;;61.85;58.95;;;;;;;9.28;100.00;101521.25;4996321;28;20050;-76
2023/09/09 02:22:52;;;;;;;62.17;59.20;;;;;;;8.95;100.00;101519.66;4996825;28;20046;-76
2023/09/09 02:25:19;;;;;;;49.50;47.17;;;;;;;9.00;100.00;101531.56;4997231;28;20057;-76
2023/09/09 02:27:46;;;;;;;49.55;47.17;;;;;;;9.22;100.00;101524.63;4992326;28;20054;-76
2023/09/09 02:30:14;;;;;;;61.10;58.20;;;;;;;9.36;100.00;101527.31;5006699;28;20054;-76
2023/09/09 02:32:43;;;;;;;54.42;51.67;;;;;;;9.44;100.00;101513.19;4996534;28;20050;-76
2023/09/09 02:35:10;;;;;;;51.80;49.20;;;;;;;9.07;100.00;101520.06;5009108;28;20464;-76
2023/09/09 02:37:37;;;;;;;43.10;40.97;;;;;;;9.01;100.00;101519.97;5000301;28;20517;-76
2023/09/09 02:40:05;;;;;;;51.20;48.80;;;;;;;9.12;100.00;101508.97;5005397;28;20092;-77
2023/09/09 02:42:32;;;;;;;44.47;42.28;;;;;;;9.12;100.00;101520.38;4999902;28;20105;-76
2023/09/09 02:44:58;;;;;;;53.63;51.05;;;;;;;8.94;100.00;101518.00;4998023;28;20052;-76
2023/09/09 02:47:27;;;;;;;52.67;50.17;;;;;;;9.01;100.00;101517.31;5002094;28;20061;-76
2023/09/09 02:49:56;;;;;;;52.58;50.28;;;;;;;8.98;100.00;101510.53;5007016;28;20054;-76
2023/09/09 02:52:22;;;;;;;51.92;49.53;;;;;;;8.69;100.00;101525.28;5007963;28;20049;-76
2023/09/09 02:54:50;;;;;;;46.03;43.83;;;;;;;8.95;100.00;101519.66;5005402;28;20052;-76
2023/09/09 02:57:17;;;;;;;41.95;39.75;;;;;;;8.94;100.00;101514.53;5002677;28;20109;-76
2023/09/09 02:59:44;;;;;;;44.45;42.28;;;;;;;8.61;100.00;101525.31;5007065;28;20144;-76
2023/09/09 03:02:11;;;;;;;44.10;42.00;;;;;;;8.70;100.00;101524.28;5008415;28;20046;-77
2023/09/09 03:04:39;;;;;;;41.92;39.92;;;;;;;8.73;100.00;101514.34;5006818;28;20042;-77
2023/09/09 03:07:06;;;;;;;42.67;40.67;;;;;;;8.02;100.00;101517.75;5004957;28;20054;-76
2023/09/09 03:09:35;;;;;;;43.00;41.00;;;;;;;8.22;100.00;101525.28;5002979;28;20042;-76
2023/09/09 03:12:03;;;;;;;42.65;40.75;;;;;;;8.32;100.00;101519.78;5008854;28;20050;-76
2023/09/09 03:14:43;;;;;;;44.42;42.03;;;;;;;8.35;100.00;101515.00;5007933;28;20049;-76
2023/09/09 03:17:09;;;;;;;50.75;48.45;;;;;;;8.24;100.00;101521.47;5011112;28;20049;-76
2023/09/09 03:19:36;;;;;;;44.95;42.95;;;;;;;8.59;100.00;101521.19;5006685;28;20045;-76
2023/09/09 03:22:07;;;;;;;38.42;36.63;;;;;;;8.16;100.00;101521.50;5005578;28;20047;-76
2023/09/09 03:24:34;;;;;;;41.40;39.50;;;;;;;7.33;100.00;101514.69;4997917;28;20046;-76
2023/09/09 03:27:03;;;;;;;39.45;37.55;;;;;;;8.14;100.00;101523.50;5010752;28;20050;-76
2023/09/09 03:29:30;;;;;;;32.30;30.70;;;;;;;8.40;100.00;101525.91;5013386;28;20510;-76
2023/09/09 03:31:57;;;;;;;44.65;42.65;;;;;;;8.53;100.00;101522.69;5008499;28;20042;-76
2023/09/09 03:34:24;;;;;;;49.40;47.10;;;;;;;8.49;100.00;101524.88;4995168;28;20054;-76
2023/09/09 03:36:51;;;;;;;41.35;39.55;;;;;;;8.42;100.00;101517.81;4998506;28;20061;-77
2023/09/09 03:39:19;;;;;;;31.80;30.33;;;;;;;8.33;100.00;101516.16;5004674;28;20475;-76
2023/09/09 03:41:46;;;;;;;33.38;31.75;;;;;;;8.57;100.00;101520.56;5002291;28;20764;-76
2023/09/09 03:44:12;;;;;;;28.83;27.10;;;;;;;8.61;100.00;101512.06;5011301;28;20042;-77
2023/09/09 03:49:20;;;;;;;25.08;23.58;;;;;;;8.49;100.00;101532.00;4997786;28;20065;-76
2023/09/09 03:51:47;;;;;;;25.70;24.20;;;;;;;8.53;100.00;101512.09;5005792;28;20069;-76
2023/09/09 03:54:13;;;;;;;23.73;22.33;;;;;;;8.77;100.00;101511.16;5004437;28;20053;-77
2023/09/09 03:56:42;;;;;;;21.88;20.38;;;;;;;9.03;100.00;101516.13;5013883;28;20061;-76
2023/09/09 03:59:14;;;;;;;24.13;22.42;;;;;;;14.16;100.00;101498.59;5010610;28;20046;-79
2023/09/09 04:01:41;;;;;;;24.27;22.67;;;;;;;9.66;100.00;101513.31;4989809;28;20053;-79
2023/09/09 04:04:10;;;;;;;23.38;21.77;;;;;;;9.57;100.00;101524.00;5013524;28;20058;-79
2023/09/09 04:06:37;;;;;;;22.50;20.90;;;;;;;9.36;100.00;101515.91;4999145;28;20524;-78
2023/09/09 04:09:07;;;;;;;22.52;21.02;;;;;;;9.30;100.00;101509.47;5009270;28;20061;-78
2023/09/09 04:11:34;;;;;;;23.38;21.77;;;;;;;9.48;100.00;101518.94;5003731;28;20055;-78
2023/09/09 04:14:02;;;;;;;22.45;20.95;;;;;;;9.45;100.00;101514.00;4993814;28;20046;-78
2023/09/09 04:16:29;;;;;;;23.35;21.85;;;;;;;9.58;100.00;101525.63;5008629;28;20046;-78
2023/09/09 04:18:56;;;;;;;23.20;21.70;;;;;;;9.57;100.00;101523.19;5012106;28;20127;-78
2023/09/09 04:21:23;;;;;;;23.45;21.92;;;;;;;9.67;100.00;101526.41;5008417;28;20049;-78
2023/09/09 04:23:50;;;;;;;26.60;24.80;;;;;;;9.57;100.00;101518.69;5013112;28;20050;-79
2023/09/09 04:26:17;;;;;;;23.30;21.70;;;;;;;9.82;100.00;101527.25;5013108;28;20050;-79
2023/09/09 04:28:44;;;;;;;23.52;22.02;;;;;;;9.70;100.00;101519.91;5013066;28;20046;-79
2023/09/09 04:31:12;;;;;;;23.15;21.65;;;;;;;9.84;100.00;101517.28;5005733;28;20053;-79
2023/09/09 04:33:39;;;;;;;22.80;21.40;;;;;;;18.39;100.00;101505.63;5007016;28;20057;-79
2023/09/09 04:36:14;;;;;;;27.80;26.00;;;;;;;23.55;100.00;101486.09;5000715;28;20854;-80
2023/09/09 04:38:41;;;;;;;25.17;23.48;;;;;;;16.25;100.00;101503.91;5011030;28;20046;-77
2023/09/09 04:41:08;;;;;;;24.63;23.02;;;;;;;14.43;100.00;101510.00;5002134;28;20560;-77
2023/09/09 04:43:34;;;;;;;26.38;24.67;;;;;;;14.14;100.00;101506.00;4992839;28;20054;-78
2023/09/09 04:46:01;;;;;;;27.83;25.65;;;;;;;13.66;100.00;101513.50;5006226;28;20046;-78
2023/09/09 04:48:30;;;;;;;26.00;24.40;;;;;;;13.48;100.00;101511.44;5012686;28;20049;-78
2023/09/09 04:51:00;;;;;;;21.92;20.42;;;;;;;22.15;100.00;101507.03;5012431;28;20165;-78
2023/09/09 04:53:27;;;;;;;26.35;24.52;;;;;;;24.40;100.00;101498.84;5003719;28;20156;-78
2023/09/09 04:55:54;;;;;;;27.52;25.25;;;;;;;24.51;100.00;101506.94;5012109;28;20058;-78
2023/09/09 04:58:21;;;;;;;25.55;23.85;;;;;;;24.48;100.00;101508.34;4992797;28;20054;-78
2023/09/09 05:00:48;;;;;;;27.33;25.52;;;;;;;24.45;100.00;101504.28;4996534;28;20058;-78
2023/09/09 05:03:15;;;;;;;29.15;24.73;;;;;;;24.46;100.00;101507.81;4992949;28;20050;-78
2023/09/09 05:05:53;;;;;;;24.95;23.25;;;;;;;24.48;100.00;101508.34;5009122;28;20050;-78
2023/09/09 05:08:20;;;;;;;25.27;23.48;;;;;;;24.05;100.00;101510.66;5012189;28;20053;-77
2023/09/09 05:10:47;;;;;;;23.13;21.33;;;;;;;20.88;100.00;101525.00;5011573;28;20042;-77
2023/09/09 05:13:14;;;;;;;23.40;21.70;;;;;;;13.97;100.00;101528.84;5011962;28;20132;-77
2023/09/09 05:15:41;;;;;;;23.95;22.25;;;;;;;13.13;100.00;101534.78;5012316;28;20065;-76
2023/09/09 05:18:10;;;;;;;24.38;22.67;;;;;;;12.77;100.00;101530.59;5011746;28;20140;-76
2023/09/09 05:20:37;;;;;;;26.20;24.40;;;;;;;23.12;100.00;101508.34;4995536;28;20081;-78
2023/09/09 05:23:05;;;;;;;26.30;24.50;;;;;;;21.27;100.00;101512.13;5008736;28;20439;-77
2023/09/09 05:25:32;;;;;;;26.65;24.85;;;;;;;14.49;100.00;101524.34;5011891;28;20443;-76
2023/09/09 05:27:59;;;;;;;25.48;23.70;;;;;;;13.22;100.00;101531.72;5011487;28;20054;-76
2023/09/09 05:30:25;;;;;;;25.50;23.90;;;;;;;14.46;100.00;101523.97;5002242;28;20046;-76
2023/09/09 05:32:52;;;;;;;24.98;23.40;;;;;;;15.30;100.00;101518.38;4999629;28;20060;-77
2023/09/09 05:35:19;;;;;;;25.35;23.65;;;;;;;13.56;100.00;101534.44;5002666;28;20061;-77
2023/09/09 05:37:53;;;;;;;26.20;24.17;;;;;;;13.47;100.00;101529.31;5007422;28;20102;-76
2023/09/09 05:40:24;;;;;;;23.60;22.00;;;;;;;13.59;100.00;101523.38;5010278;28;20048;-77
2023/09/09 05:43:05;;;;;;;23.55;22.02;;;;;;;18.52;100.00;101515.31;5001780;28;20050;-79
2023/09/09 05:45:31;;;;;;;23.40;21.90;;;;;;;19.07;100.00;101520.09;5011630;28;20045;-79
2023/09/09 05:47:58;;;;;;;23.02;21.42;;;;;;;21.71;100.00;101514.63;5011621;28;20046;-77
2023/09/09 05:50:25;;;;;;;25.35;23.75;;;;;;;16.18;100.00;101522.72;5011139;28;20049;-78
2023/09/09 05:52:52;;;;;;;26.25;24.55;;;;;;;14.86;100.00;101527.31;5002051;28;20058;-77
2023/09/09 05:55:19;;;;;;;26.17;24.48;;;;;;;14.75;100.00;101530.66;5002235;28;20061;-77
2023/09/09 05:57:49;;;;;;;25.02;23.52;;;;;;;14.73;100.00;101535.41;4993084;28;20393;-77
2023/09/09 06:00:17;;;;;;;24.83;23.33;;;;;;;14.93;100.00;101529.94;5006835;28;20042;-77
2023/09/09 06:02:57;;;;;;;23.42;21.92;;;;;;;15.29;100.00;101531.97;5005830;28;20050;-77
2023/09/09 06:05:24;;;;;;;24.98;23.40;;;;;;;15.05;100.00;101528.22;5009601;28;20173;-77
2023/09/09 06:07:51;;;;;;;25.27;23.48;;;;;;;15.19;100.00;101526.25;4992046;28;20061;-77
2023/09/09 06:10:18;;;;;;;22.98;21.38;;;;;;;15.54;100.00;101538.16;4991431;28;20062;-77
2023/09/09 06:12:46;;;;;;;25.00;23.30;;;;;;;16.00;100.00;101538.78;5010277;28;20145;-77
2023/09/09 06:15:14;;;;;;;22.90;21.40;;;;;;;15.94;100.00;101539.66;4995502;28;20500;-77
2023/09/09 06:17:42;;;;;;;22.35;20.85;;;;;;;16.29;100.00;101539.09;5001811;28;20054;-77
2023/09/09 06:20:18;;;;;;;24.92;23.33;;;;;;;16.55;100.00;101537.94;5004965;28;20494;-77
2023/09/09 06:22:45;;;;;;;24.42;22.75;;;;;;;16.58;100.00;101537.50;5011130;28;20046;-77
2023/09/09 06:25:12;;;;;;;22.35;20.85;;;;;;;16.94;100.00;101539.31;5006680;28;20046;-77
2023/09/09 06:27:38;;;;;;;23.92;22.33;;;;;;;17.28;100.00;101535.13;5006968;28;20525;-77
2023/09/09 06:30:08;;;;;;;22.98;21.48;;;;;;;17.38;100.00;101534.53;5011075;28;20054;-77
2023/09/09 06:32:56;;;;;;;22.10;20.60;;;;;;;17.78;100.00;101532.03;4993628;28;20133;-77
2023/09/09 06:35:31;;;;;;;22.17;20.67;;;;;;;17.90;100.00;101534.72;5009211;28;20514;-77
2023/09/09 06:38:08;;;;;;;21.80;20.20;;;;;;;18.53;100.00;101544.66;5009990;28;20466;-77
2023/09/09 06:40:44;;;;;;;20.67;19.17;;;;;;;18.72;100.00;101534.50;5010396;28;20069;-77
2023/09/09 06:43:11;;;;;;;21.40;19.80;;;;;;;18.83;100.00;101540.13;4996706;28;20428;-77
2023/09/09 06:45:48;;;;;;;23.00;20.60;;;;;;;18.87;100.00;101538.56;5015071;28;20140;-78
2023/09/09 06:48:32;;;;;;;21.90;20.30;;;;;;;19.34;100.00;101527.56;5013846;28;20518;-78
2023/09/09 06:50:59;;;;;;;24.42;22.73;;;;;;;19.67;100.00;101529.44;5014694;28;20060;-78
2023/09/09 06:53:32;;;;;;;25.00;23.15;;;;;;;19.80;100.00;101525.59;5006381;28;20488;-78
2023/09/09 06:55:59;;;;;;;22.98;21.27;;;;;;;19.91;100.00;101524.69;5010018;28;20539;-78
2023/09/09 06:58:27;;;;;;;23.15;21.45;;;;;;;20.05;100.00;101530.50;5014415;28;20060;-78
2023/09/09 07:00:54;;;;;;;22.70;21.00;;;;;;;20.44;100.00;101525.06;4994838;28;20051;-77
2023/09/09 07:03:21;;;;;;;21.48;19.95;;;;;;;20.78;100.00;101529.22;5004323;28;20058;-77
2023/09/09 07:05:49;;;;;;;22.73;21.17;;;;;;;20.98;100.00;101519.72;5012088;28;20050;-77
2023/09/09 07:08:17;;;;;;;23.67;22.08;;;;;;;21.29;100.00;101526.19;5002824;28;20050;-77
2023/09/09 07:10:49;;;;;;;23.17;21.52;;;;;;;21.50;100.00;101525.31;4996809;28;20076;-77
2023/09/09 07:13:16;;;;;;;24.17;22.48;;;;;;;21.52;100.00;101527.75;4995230;28;20146;-77
2023/09/09 07:15:51;;;;;;;22.95;21.23;;;;;;;21.96;100.00;101525.59;4994444;28;20061;-77
2023/09/09 07:18:18;;;;;;;22.35;20.73;;;;;;;21.89;100.00;101521.50;4997011;28;20466;-78
2023/09/09 07:20:46;;;;;;;23.30;21.60;;;;;;;22.43;100.00;101521.22;5012249;28;20100;-78
2023/09/09 07:23:16;;;;;;;24.52;22.92;;;;;;;22.47;100.00;101519.59;5012451;28;20050;-78
2023/09/09 07:26:17;;;;;;;26.80;25.00;;;;;;;22.61;100.00;101514.50;5001796;28;20070;-79
2023/09/09 07:28:45;;;;;;;25.50;23.70;;;;;;;22.51;100.00;101518.00;4996847;28;20508;-78
2023/09/09 07:31:25;;;;;;;25.92;24.13;;;;;;;23.22;100.00;101517.31;4998615;28;20052;-79
2023/09/09 07:33:57;;;;;;;25.42;23.73;;;;;;;23.80;100.00;101508.03;4994756;28;20146;-77
2023/09/09 07:36:29;;;;;;;23.55;21.90;;;;;;;23.11;100.00;101509.44;5002058;28;20077;-77
2023/09/09 07:38:57;;;;;;;24.10;22.42;;;;;;;23.67;100.00;101509.41;5007180;28;20043;-78
2023/09/09 07:41:32;;;;;;;23.23;21.63;;;;;;;23.59;100.00;101505.34;5006890;28;20496;-78
2023/09/09 07:44:02;;;;;;;26.77;25.20;;;;;;;24.02;100.00;101505.78;5005698;28;20057;-78
2023/09/09 07:46:29;;;;;;;25.83;24.13;;;;;;;24.19;100.00;101503.56;5013711;28;20057;-79
2023/09/09 07:48:57;;;;;;;23.30;21.60;;;;;;;24.16;100.00;101504.13;5014021;28;20060;-79
2023/09/09 07:51:24;;;;;;;23.08;21.45;;;;;;;23.72;100.00;101507.53;5011581;28;20219;-79
2023/09/09 07:53:53;;;;;;;22.45;20.75;;;;;;;24.41;100.00;101494.22;5008419;28;20049;-77
2023/09/09 07:56:21;;;;;;;23.90;22.20;;;;;;;24.17;100.00;101497.59;5011361;28;20046;-78
2023/09/09 07:58:50;;;;;;;24.60;22.60;;;;;;;24.05;100.00;101490.88;5005486;28;20042;-77
2023/09/09 08:01:26;;;;;;;22.15;20.35;;;;;;;24.86;100.00;101493.13;5004670;28;20581;-77
2023/09/09 08:03:54;;;;;;;22.83;21.13;;;;;;;24.70;100.00;101493.53;4995216;28;20417;-77
2023/09/09 08:06:20;;;;;;;22.90;21.20;;;;;;;25.20;100.00;101492.34;4996173;28;20056;-77
2023/09/09 08:08:47;;;;;;;23.02;21.23;;;;;;;25.81;100.00;101496.38;4993954;28;20551;-77
2023/09/09 08:11:14;;;;;;;24.10;22.30;;;;;;;25.81;100.00;101494.50;5003481;28;20052;-77
2023/09/09 08:13:43;;;;;;;23.70;21.80;;;;;;;25.93;100.00;101495.97;4995157;28;20050;-77
2023/09/09 08:16:18;;;;;;;22.60;20.90;;;;;;;25.28;100.00;101499.91;5012810;28;20061;-77
2023/09/09 08:18:47;;;;;;;23.05;21.33;;;;;;;25.53;100.00;101492.59;4999255;28;20046;-77
2023/09/09 08:21:14;;;;;;;23.38;21.67;;;;;;;25.57;100.00;101480.84;5008765;28;20053;-77
2023/09/09 08:24:01;;;;;;;23.52;21.83;;;;;;;25.24;100.00;101493.41;4993544;28;20046;-77
2023/09/09 08:26:29;;;;;;;23.42;21.73;;;;;;;26.35;100.00;101486.19;4993797;28;20562;-77
2023/09/09 08:28:57;;;;;;;24.15;22.45;;;;;;;26.24;100.00;101486.34;4997564;28;20046;-77
2023/09/09 08:31:24;;;;;;;24.45;22.65;;;;;;;26.02;100.00;101486.06;5010794;28;20090;-77
2023/09/09 08:34:00;;;;;;;24.60;22.75;;;;;;;25.36;100.00;101488.41;5009747;28;20054;-77
2023/09/09 08:36:27;;;;;;;23.52;21.83;;;;;;;27.50;98.35;101475.63;5004919;28;20049;-77
2023/09/09 08:38:56;;;;;;;23.85;22.05;;;;;;;27.53;88.76;101479.69;5012696;28;20056;-77
2023/09/09 08:41:41;;;;;;;24.25;22.45;;;;;;;26.89;90.93;101466.59;5009310;28;20074;-77
2023/09/09 08:44:16;;;;;;;24.83;23.13;;;;;;;26.53;98.43;101470.97;5005632;28;20046;-77
2023/09/09 08:46:42;;;;;;;20.95;19.35;;;;;;;27.02;85.39;101470.50;5006876;28;20050;-77
2023/09/09 08:49:14;;;;;;;22.98;21.17;;;;;;;26.22;86.86;101468.66;5011185;28;20050;-77
2023/09/09 08:52:01;;;;;;;23.05;21.25;;;;;;;26.10;89.75;101479.19;5012441;28;20054;-77
2023/09/09 08:54:31;;;;;;;25.40;23.70;;;;;;;27.88;63.73;101461.81;5004887;28;20046;-77
2023/09/09 08:57:02;;;;;;;25.83;23.95;;;;;;;28.31;65.32;101461.44;4997632;28;20061;-77
2023/09/09 08:59:39;;;;;;;25.98;24.27;;;;;;;26.18;78.82;101467.66;5002958;28;20046;-77
2023/09/09 09:02:09;;;;;;;25.67;23.77;;;;;;;27.70;71.23;101458.06;4996449;28;20053;-77
2023/09/09 09:04:38;;;;;;;24.98;23.17;;;;;;;27.15;56.17;101469.72;4996014;28;20046;-77
2023/09/09 09:07:06;;;;;;;24.48;22.75;;;;;;;26.50;74.05;101470.47;5006882;28;20522;-77
2023/09/09 09:09:34;;;;;;;23.92;22.23;;;;;;;26.28;75.26;101467.50;5001560;28;20499;-77
2023/09/09 09:12:02;;;;;;;24.90;23.10;;;;;;;25.63;65.42;101465.28;5005899;28;20053;-78
2023/09/09 09:14:31;;;;;;;22.33;20.63;;;;;;;27.30;62.54;101463.19;4998454;28;20112;-77
2023/09/09 09:17:01;;;;;;;22.20;20.40;;;;;;;26.66;81.25;101456.63;5012070;28;20057;-76
2023/09/09 09:19:32;;;;;;;23.80;21.70;;;;;;;27.01;52.32;101452.50;5001406;28;20042;-77
2023/09/09 09:22:01;;;;;;;23.42;21.42;;;;;;;28.50;56.68;101450.38;5011548;28;20053;-77
2023/09/09 09:24:42;;;;;;;24.55;22.75;;;;;;;28.51;47.45;101444.63;5008430;28;20049;-78
2023/09/09 09:27:15;;;;;;;26.98;24.92;;;;;;;29.31;45.14;101447.53;4992451;28;20100;-77
2023/09/09 09:29:45;;;;;;;24.40;22.70;;;;;;;28.50;41.50;101442.19;4993192;28;20448;-77
2023/09/09 09:32:14;;;;;;;24.73;22.92;;;;;;;28.84;40.36;101441.63;4994281;28;20051;-77
2023/09/09 09:34:43;;;;;;;26.98;24.92;;;;;;;29.94;39.39;101442.78;5003158;28;20137;-77
2023/09/09 09:37:12;;;;;;;26.70;24.40;;;;;;;30.35;41.19;101436.88;5004897;28;20045;-77
2023/09/09 09:39:41;;;;;;;29.45;26.92;;;;;;;29.12;51.77;101439.56;5000667;28;20046;-77
2023/09/09 09:42:17;;;;;;;25.20;23.30;;;;;;;30.16;39.29;101433.59;5010210;28;20046;-77
2023/09/09 09:45:09;;;;;;;24.75;22.95;;;;;;;28.54;37.12;101432.25;5002660;28;20047;-77
2023/09/09 09:47:48;;;;;;;77.80;41.17;;;;;;;27.31;57.21;101436.72;5005368;28;20058;-78
2023/09/09 09:50:25;;;;;;;30.80;28.40;;;;;;;28.34;49.71;101428.03;5003166;28;20054;-77
2023/09/09 09:52:58;;;;;;;29.17;27.08;;;;;;;29.37;39.19;101429.84;5006922;28;20046;-78
2023/09/09 09:55:25;;;;;;;27.63;25.63;;;;;;;29.18;49.76;101432.03;5011441;28;20050;-78
2023/09/09 09:57:55;;;;;;;26.52;24.52;;;;;;;31.08;35.61;101411.47;5003102;28;20050;-77
2023/09/09 10:00:22;;;;;;;26.50;24.60;;;;;;;31.03;36.15;101412.44;5011606;28;20111;-77
2023/09/09 10:02:53;;;;;;;27.27;25.27;;;;;;;31.59;32.60;101411.56;5003062;28;20046;-79
2023/09/09 10:05:22;;;;;;;25.52;23.63;;;;;;;30.94;33.76;101405.38;5010079;28;20045;-78
2023/09/09 10:07:53;;;;;;;24.65;22.75;;;;;;;31.52;31.48;101406.59;5005358;28;20108;-78
2023/09/09 10:10:23;;;;;;;24.33;22.52;;;;;;;32.02;31.10;101402.28;5011807;28;20530;-78
2023/09/09 10:13:10;;;;;;;24.52;22.63;;;;;;;31.30;39.40;101404.09;5011099;28;20046;-78
2023/09/09 10:15:38;;;;;;;29.13;27.02;;;;;;;29.82;35.38;101401.53;5005164;28;20045;-78
2023/09/09 10:18:13;;;;;;;25.38;23.48;;;;;;;30.84;32.51;101394.78;5002513;28;20058;-78
2023/09/09 10:20:40;;;;;;;28.52;26.52;;;;;;;30.58;32.98;101390.91;5005260;28;20049;-78
2023/09/09 10:23:08;;;;;;;26.50;24.60;;;;;;;30.89;31.07;101392.63;5001152;28;20045;-78
2023/09/09 10:25:38;;;;;;;23.25;21.45;;;;;;;30.63;37.97;101386.41;5009573;28;20455;-78
2023/09/09 10:28:07;;;;;;;25.33;23.50;;;;;;;30.53;36.78;101393.00;5013324;28;20042;-78
2023/09/09 10:30:36;;;;;;;25.20;23.40;;;;;;;31.28;34.40;101387.97;5002415;28;20053;-78
2023/09/09 10:33:07;;;;;;;23.98;22.27;;;;;;;30.80;33.08;101383.63;5014897;28;20049;-78
2023/09/09 10:35:38;;;;;;;24.48;22.67;;;;;;;30.13;40.28;101379.47;5002183;28;20096;-78
2023/09/09 10:38:06;;;;;;;25.17;23.33;;;;;;;31.36;33.00;101375.38;5011304;28;20042;-77
2023/09/09 10:40:33;;;;;;;22.92;21.23;;;;;;;30.34;37.55;101363.22;5001772;28;20081;-78
2023/09/09 10:43:01;;;;;;;24.50;22.70;;;;;;;29.59;40.06;101377.00;5002346;28;20042;-77
2023/09/09 10:45:29;;;;;;;28.13;26.25;;;;;;;30.41;35.64;101365.47;4999475;28;20052;-78
2023/09/09 10:48:01;;;;;;;25.45;23.75;;;;;;;31.58;32.90;101355.84;5011891;28;20065;-78
2023/09/09 10:50:40;;;;;;;24.42;22.63;;;;;;;30.56;37.34;101363.03;4996455;28;20475;-77
2023/09/09 10:53:18;;;;;;;32.53;24.58;;;;;;;32.78;32.89;101362.59;5014753;28;20050;-78
2023/09/09 10:55:46;;;;;;;25.50;23.70;;;;;;;30.28;39.00;101359.84;4995285;28;20057;-78
2023/09/09 10:58:19;;;;;;;25.50;23.45;;;;;;;32.03;31.95;101362.66;5012034;28;20455;-78
2023/09/09 11:00:51;;;;;;;24.05;22.35;;;;;;;32.31;31.13;101349.16;4998127;28;20088;-78
2023/09/09 11:03:21;;;;;;;28.27;26.38;;;;;;;31.61;34.75;101348.91;5008099;28;20431;-79
2023/09/09 11:06:06;;;;;;;26.77;24.88;;;;;;;32.70;30.87;101345.03;5012196;28;20060;-79
2023/09/09 11:08:36;;;;;;;28.42;26.42;;;;;;;31.71;32.83;101345.75;4998389;28;20111;-79
2023/09/09 11:11:13;;;;;;;25.95;24.05;;;;;;;31.19;39.43;101341.34;5011761;28;20081;-79
2023/09/09 11:14:02;;;;;;;26.25;24.25;;;;;;;30.68;38.49;101334.13;5010115;28;20088;-78
2023/09/09 11:16:33;;;;;;;27.45;25.45;;;;;;;31.84;30.93;101332.91;5014175;28;20112;-79
2023/09/09 11:19:10;;;;;;;27.35;25.45;;;;;;;32.44;32.31;101322.50;5008301;28;20046;-79
2023/09/09 11:21:41;;;;;;;27.52;25.52;;;;;;;31.53;32.56;101323.13;4997742;28;20049;-79